createdAt,value
2023-02-03T00:00:14.277Z,101204.00
2023-02-03T00:02:41.942Z,101189.00
2023-02-03T00:05:11.001Z,101201.00
2023-02-03T00:07:39.482Z,101205.00
2023-02-03T00:10:08.877Z,101192.00
2023-02-03T00:12:36.545Z,101180.00
2023-02-03T00:15:04.477Z,101179.00
2023-02-03T00:17:32.188Z,101182.00
2023-02-03T00:19:59.865Z,101176.00
2023-02-03T00:22:28.858Z,101177.00
2023-02-03T00:24:56.473Z,101168.00
2023-02-03T00:27:24.125Z,101166.00
2023-02-03T00:29:51.786Z,101171.00
2023-02-03T00:32:19.657Z,101148.00
2023-02-03T00:34:47.471Z,101152.00
2023-02-03T00:37:15.150Z,101144.00
2023-02-03T00:39:44.146Z,101153.00
2023-02-03T00:42:11.802Z,101166.00
2023-02-03T00:44:39.457Z,101156.00
2023-02-03T00:47:07.267Z,101156.00
2023-02-03T00:49:34.958Z,101150.00
2023-02-03T00:52:02.701Z,101151.00
2023-02-03T00:54:32.045Z,101143.00
2023-02-03T00:57:01.909Z,101147.00
2023-02-03T00:59:29.559Z,101151.00
2023-02-03T01:01:57.287Z,101143.00
2023-02-03T01:04:25.004Z,101168.00
2023-02-03T01:06:56.180Z,101140.00
2023-02-03T01:09:23.987Z,101157.00
2023-02-03T01:11:51.643Z,101138.00
2023-02-03T01:14:20.661Z,101130.00
2023-02-03T01:16:48.450Z,101152.00
2023-02-03T01:19:16.818Z,101151.00
2023-02-03T01:21:44.701Z,101140.00
2023-02-03T01:24:12.441Z,101143.00
2023-02-03T01:26:40.139Z,101158.00
2023-02-03T01:29:08.769Z,101153.00
2023-02-03T01:31:40.589Z,101157.00
2023-02-03T01:34:12.156Z,101158.00
2023-02-03T01:36:41.056Z,101150.00
2023-02-03T01:39:08.794Z,101143.00
2023-02-03T01:41:39.764Z,101146.00
2023-02-03T01:44:42.314Z,101147.00
2023-02-03T01:47:19.617Z,101142.00
2023-02-03T01:49:52.527Z,101141.00
2023-02-03T01:52:20.439Z,101141.00
2023-02-03T01:54:50.639Z,101131.00
2023-02-03T01:57:22.916Z,101131.00
2023-02-03T01:59:53.608Z,101118.00
2023-02-03T02:02:23.028Z,101107.00
2023-02-03T02:04:56.478Z,101111.00
2023-02-03T02:07:25.192Z,101100.00
2023-02-03T02:09:53.509Z,101080.00
2023-02-03T02:12:21.214Z,101093.00
2023-02-03T02:14:49.522Z,101076.00
2023-02-03T02:17:34.179Z,101062.00
2023-02-03T02:20:39.181Z,101066.00
2023-02-03T02:23:40.711Z,101070.00
2023-02-03T02:26:36.768Z,101074.00
2023-02-03T02:29:29.423Z,101056.00
2023-02-03T02:32:05.884Z,101038.00
2023-02-03T02:34:43.606Z,101028.00
2023-02-03T02:37:21.503Z,101038.00
2023-02-03T02:39:57.156Z,101035.00
2023-02-03T02:42:32.918Z,101042.00
2023-02-03T02:45:09.514Z,101047.00
2023-02-03T02:47:39.435Z,101046.00
2023-02-03T02:50:13.415Z,101052.00
2023-02-03T02:52:43.734Z,101043.00
2023-02-03T02:55:18.107Z,101026.00
2023-02-03T02:57:48.545Z,101021.00
2023-02-03T03:00:16.646Z,101013.00
2023-02-03T03:02:45.714Z,101011.00
2023-02-03T03:05:13.971Z,101012.00
2023-02-03T03:07:46.254Z,101017.00
2023-02-03T03:10:16.990Z,101025.00
2023-02-03T03:12:50.119Z,101014.00
2023-02-03T03:15:22.297Z,101015.00
2023-02-03T03:17:57.433Z,101022.00
2023-02-03T03:20:27.781Z,101019.00
2023-02-03T03:23:00.392Z,101029.00
2023-02-03T03:25:33.727Z,101021.00
2023-02-03T03:28:06.726Z,101012.00
2023-02-03T03:30:36.753Z,101016.00
2023-02-03T03:33:07.810Z,101007.00
2023-02-03T03:35:40.646Z,101019.00
2023-02-03T03:38:12.265Z,101000.00
2023-02-03T03:40:44.636Z,100996.00
2023-02-03T03:43:16.935Z,100998.00
2023-02-03T03:45:49.911Z,100998.00
2023-02-03T03:48:23.324Z,100977.00
2023-02-03T03:50:56.591Z,100967.00
2023-02-03T03:53:26.418Z,100978.00
2023-02-03T03:55:55.343Z,100977.00
2023-02-03T03:58:26.736Z,100986.00
2023-02-03T04:00:59.023Z,100975.00
2023-02-03T04:03:36.368Z,100972.00
2023-02-03T04:06:04.421Z,100984.00
2023-02-03T04:08:32.282Z,100970.00
2023-02-03T04:11:00.079Z,100965.00
2023-02-03T04:13:27.789Z,100950.00
2023-02-03T04:15:55.519Z,100957.00
2023-02-03T04:18:23.302Z,100956.00
2023-02-03T04:20:52.432Z,100971.00
2023-02-03T04:23:20.162Z,100962.00
2023-02-03T04:25:47.897Z,100955.00
2023-02-03T04:28:17.606Z,100953.00
2023-02-03T04:30:45.353Z,100966.00
2023-02-03T04:33:13.027Z,100960.00
2023-02-03T04:35:40.758Z,100963.00
2023-02-03T04:38:09.785Z,100963.00
2023-02-03T04:40:37.634Z,100959.00
2023-02-03T04:43:08.685Z,100968.00
2023-02-03T04:45:36.379Z,100958.00
2023-02-03T04:48:04.971Z,100959.00
2023-02-03T04:50:32.719Z,100959.00
2023-02-03T04:53:01.062Z,100951.00
2023-02-03T04:55:30.625Z,100940.00
2023-02-03T04:57:58.833Z,100932.00
2023-02-03T05:00:27.258Z,100935.00
2023-02-03T05:02:55.704Z,100941.00
2023-02-03T05:05:23.407Z,100939.00
2023-02-03T05:07:51.207Z,100926.00
2023-02-03T05:10:19.027Z,100918.00
2023-02-03T05:12:48.100Z,100930.00
2023-02-03T05:15:16.119Z,100924.00
2023-02-03T05:17:43.935Z,100907.00
2023-02-03T05:20:13.193Z,100916.00
2023-02-03T05:22:41.177Z,100901.00
2023-02-03T05:25:09.763Z,100910.00
2023-02-03T05:27:39.458Z,100901.00
2023-02-03T05:30:10.309Z,100887.00
2023-02-03T05:32:38.090Z,100894.00
2023-02-03T05:35:06.185Z,100873.00
2023-02-03T05:37:33.892Z,100876.00
2023-02-03T05:40:15.525Z,100860.00
2023-02-03T05:42:48.070Z,100867.00
2023-02-03T05:45:17.895Z,100869.00
2023-02-03T05:47:45.574Z,100867.00
2023-02-03T05:50:13.409Z,100869.00
2023-02-03T05:52:41.094Z,100877.00
2023-02-03T05:55:09.179Z,100884.00
2023-02-03T05:57:36.925Z,100887.00
2023-02-03T06:00:06.308Z,100873.00
2023-02-03T06:02:35.297Z,100876.00
2023-02-03T06:05:03.046Z,100876.00
2023-02-03T06:07:30.764Z,100873.00
2023-02-03T06:09:58.595Z,100888.00
2023-02-03T06:12:28.259Z,100887.00
2023-02-03T06:14:57.115Z,100887.00
2023-02-03T06:17:24.772Z,100882.00
2023-02-03T06:19:53.803Z,100889.00
2023-02-03T06:22:21.499Z,100892.00
2023-02-03T06:24:49.268Z,100881.00
2023-02-03T06:27:17.235Z,100881.00
2023-02-03T06:29:44.877Z,100893.00
2023-02-03T06:32:12.598Z,100887.00
2023-02-03T06:34:40.364Z,100889.00
2023-02-03T06:37:09.622Z,100857.00
2023-02-03T06:39:37.414Z,100862.00
2023-02-03T06:42:05.286Z,100883.00
2023-02-03T06:44:32.996Z,100868.00
2023-02-03T06:47:02.070Z,100872.00
2023-02-03T06:49:30.078Z,100860.00
2023-02-03T06:51:57.850Z,100875.00
2023-02-03T06:54:26.934Z,100864.00
2023-02-03T06:56:54.892Z,100866.00
2023-02-03T06:59:23.131Z,100838.00
2023-02-03T07:01:50.876Z,100846.00
2023-02-03T07:04:19.331Z,100854.00
2023-02-03T07:06:47.080Z,100837.00
2023-02-03T07:09:14.782Z,100830.00
2023-02-03T07:11:43.839Z,100846.00
2023-02-03T07:14:11.479Z,100850.00
2023-02-03T07:16:39.243Z,100826.00
2023-02-03T07:19:07.528Z,100865.00
2023-02-03T07:21:35.218Z,100828.00
2023-02-03T07:24:03.362Z,100851.00
2023-02-03T07:26:31.096Z,100828.00
2023-02-03T07:29:00.808Z,100831.00
2023-02-03T07:37:06.156Z,100826.00
2023-02-03T07:39:34.722Z,100808.00
2023-02-03T07:42:06.068Z,100789.00
2023-02-03T07:44:36.735Z,100829.00
2023-02-03T07:49:47.231Z,100773.00
2023-02-03T07:52:15.311Z,100780.00
2023-02-03T07:54:43.363Z,100755.00
2023-02-03T07:57:11.367Z,100837.00
2023-02-03T07:59:40.963Z,100753.00
2023-02-03T08:02:11.268Z,100824.00
2023-02-03T08:04:45.752Z,100806.00
2023-02-03T08:07:22.736Z,100791.00
2023-02-03T08:09:51.532Z,100818.00
2023-02-03T08:12:21.898Z,100780.00
2023-02-03T08:15:03.682Z,100799.00
2023-02-03T08:17:42.253Z,100821.00
2023-02-03T08:20:21.079Z,100823.00
2023-02-03T08:22:49.251Z,100816.00
2023-02-03T08:25:22.557Z,100814.00
2023-02-03T08:27:51.134Z,100774.00
2023-02-03T08:30:31.495Z,100782.00
2023-02-03T08:33:02.313Z,100774.00
2023-02-03T08:35:30.657Z,100839.00
2023-02-03T08:37:58.858Z,100781.00
2023-02-03T08:40:27.535Z,100834.00
2023-02-03T08:42:55.639Z,100813.00
2023-02-03T08:45:25.090Z,100782.00
2023-02-03T08:47:53.679Z,100780.00
2023-02-03T08:50:21.821Z,100767.00
2023-02-03T08:52:49.846Z,100767.00
2023-02-03T08:55:17.787Z,100759.00
2023-02-03T08:57:46.019Z,100802.00
2023-02-03T09:00:15.467Z,100766.00
2023-02-03T09:02:44.909Z,100819.00
2023-02-03T09:05:12.957Z,100836.00
2023-02-03T09:07:41.238Z,100791.00
2023-02-03T09:10:10.060Z,100806.00
2023-02-03T09:12:38.015Z,100803.00
2023-02-03T09:15:08.099Z,100816.00
2023-02-03T09:17:36.696Z,100799.00
2023-02-03T09:20:16.465Z,100818.00
2023-02-03T09:22:46.347Z,100822.00
2023-02-03T09:25:16.343Z,100778.00
2023-02-03T09:27:44.464Z,100814.00
2023-02-03T09:30:31.634Z,100819.00
2023-02-03T09:33:01.010Z,100807.00
2023-02-03T09:36:04.244Z,100738.00
2023-02-03T09:38:36.008Z,100804.00
2023-02-03T09:41:32.561Z,100793.00
2023-02-03T09:45:01.394Z,100743.00
2023-02-03T09:47:50.226Z,100735.00
2023-02-03T10:02:06.052Z,100807.00
2023-02-03T10:10:00.466Z,100730.00
2023-02-03T10:13:11.395Z,100804.00
2023-02-03T10:16:03.857Z,100774.00
2023-02-03T10:21:49.610Z,100818.00
2023-02-03T11:00:32.479Z,100847.00
2023-02-03T11:33:29.929Z,100910.00
2023-02-03T12:27:52.310Z,100937.00
2023-02-03T12:30:26.004Z,100942.00
2023-02-03T12:32:58.292Z,100933.00
2023-02-03T12:35:32.915Z,100949.00
2023-02-03T12:38:06.416Z,100961.00
2023-02-03T12:43:18.613Z,100979.00
2023-02-03T12:45:53.982Z,100984.00
2023-02-03T12:48:27.109Z,100972.00
2023-02-03T12:50:59.369Z,100978.00
2023-02-03T12:53:31.952Z,100968.00
2023-02-03T12:56:05.056Z,100969.00
2023-02-03T12:58:38.304Z,100968.00
2023-02-03T13:01:10.729Z,100974.00
2023-02-03T13:03:46.767Z,100976.00
2023-02-03T13:06:23.073Z,100978.00
2023-02-03T13:08:56.641Z,100964.00
2023-02-03T13:11:30.029Z,100976.00
2023-02-03T13:14:04.879Z,100978.00
2023-02-03T13:16:37.075Z,100982.00
2023-02-03T13:19:10.842Z,100984.00
2023-02-03T13:21:38.690Z,100985.00
2023-02-03T13:24:06.943Z,100962.00
2023-02-03T13:26:49.691Z,100985.00
2023-02-03T13:29:34.331Z,100971.00
2023-02-03T13:32:16.794Z,100980.00
2023-02-03T13:34:57.940Z,100965.00
2023-02-03T13:37:39.748Z,100979.00
2023-02-03T13:40:21.667Z,100969.00
2023-02-03T13:42:55.249Z,100972.00
2023-02-03T13:45:28.323Z,100980.00
2023-02-03T13:47:59.861Z,100984.00
2023-02-03T13:50:30.809Z,100987.00
2023-02-03T13:53:02.617Z,100991.00
2023-02-03T13:55:36.023Z,100985.00
2023-02-03T13:58:04.669Z,100989.00
2023-02-03T14:01:06.539Z,100980.00
2023-02-03T14:03:45.522Z,100992.00
2023-02-03T14:06:49.464Z,100992.00
2023-02-03T14:09:22.202Z,101000.00
2023-02-03T14:11:51.404Z,101005.00
2023-02-03T14:15:04.079Z,101021.00
2023-02-03T14:18:22.547Z,101016.00
2023-02-03T14:20:57.836Z,101006.00
2023-02-03T14:23:39.294Z,101012.00
2023-02-03T14:26:07.173Z,101013.00
2023-02-03T14:28:41.224Z,101031.00
2023-02-03T14:31:15.005Z,101032.00
2023-02-03T14:34:03.159Z,101020.00
2023-02-03T14:36:42.252Z,101039.00
2023-02-03T14:39:55.302Z,101038.00
2023-02-03T14:42:46.174Z,101050.00
2023-02-03T14:45:27.199Z,101041.00
2023-02-03T14:48:06.900Z,101048.00
2023-02-03T14:50:48.661Z,101040.00
2023-02-03T14:53:31.696Z,101054.00
2023-02-03T14:56:13.339Z,101050.00
2023-02-03T14:58:46.710Z,101072.00
2023-02-03T15:01:48.001Z,101067.00
2023-02-03T15:04:24.368Z,101078.00
2023-02-03T15:06:53.850Z,101087.00
2023-02-03T15:09:31.255Z,101087.00
2023-02-03T15:11:58.912Z,101075.00
2023-02-03T15:14:30.212Z,101086.00
2023-02-03T15:17:00.739Z,101089.00
2023-02-03T15:19:32.865Z,101087.00
2023-02-03T15:22:00.823Z,101101.00
2023-02-03T15:24:38.045Z,101089.00
2023-02-03T15:27:05.779Z,101088.00
2023-02-03T15:29:36.344Z,101101.00
2023-02-03T15:32:10.755Z,101086.00
2023-02-03T15:34:42.540Z,101084.00
2023-02-03T15:37:16.850Z,101103.00
2023-02-03T15:39:57.957Z,101089.00
2023-02-03T15:42:30.657Z,101126.00
2023-02-03T15:45:03.176Z,101140.00
2023-02-03T15:47:35.285Z,101133.00
2023-02-03T15:50:16.622Z,101125.00
2023-02-03T15:52:46.887Z,101144.00
2023-02-03T15:55:21.258Z,101141.00
2023-02-03T15:57:50.956Z,101159.00
2023-02-03T16:00:31.817Z,101174.00
2023-02-03T16:03:01.582Z,101157.00
2023-02-03T16:05:32.398Z,101166.00
2023-02-03T16:08:35.958Z,101181.00
2023-02-03T16:11:22.074Z,101186.00
2023-02-03T16:13:49.789Z,101194.00
2023-02-03T16:16:21.949Z,101212.00
2023-02-03T16:18:54.400Z,101196.00
2023-02-03T16:21:52.774Z,101182.00
2023-02-03T16:24:42.267Z,101192.00
2023-02-03T16:27:36.192Z,101187.00
2023-02-03T16:30:43.902Z,101179.00
2023-02-03T16:33:32.396Z,101189.00
2023-02-03T16:36:20.926Z,101205.00
2023-02-03T16:39:07.248Z,101194.00
2023-02-03T16:41:52.664Z,101214.00
2023-02-03T16:44:39.185Z,101208.00
2023-02-03T16:47:40.288Z,101199.00
2023-02-03T16:50:38.108Z,101197.00
2023-02-03T16:53:07.392Z,101203.00
2023-02-03T16:55:35.167Z,101211.00
2023-02-03T16:58:02.919Z,101220.00
2023-02-03T17:00:31.966Z,101217.00
2023-02-03T17:02:59.586Z,101209.00
2023-02-03T17:05:27.420Z,101197.00
2023-02-03T17:07:55.264Z,101203.00
2023-02-03T17:10:23.383Z,101188.00
2023-02-03T17:12:52.791Z,101161.00
2023-02-03T17:15:20.529Z,101180.00
2023-02-03T17:17:49.529Z,101191.00
2023-02-03T17:20:17.719Z,101190.00
2023-02-03T17:22:45.401Z,101203.00
2023-02-03T17:25:13.140Z,101216.00
2023-02-03T17:27:40.813Z,101226.00
2023-02-03T17:30:09.465Z,101207.00
2023-02-03T17:32:37.150Z,101216.00
2023-02-03T17:35:06.422Z,101220.00
2023-02-03T17:37:34.377Z,101224.00
2023-02-03T17:53:57.082Z,101251.00
2023-02-03T17:56:26.620Z,101248.00
2023-02-03T17:58:56.680Z,101238.00
2023-02-03T18:01:25.342Z,101260.00
2023-02-03T18:03:56.105Z,101238.00
2023-02-03T18:06:26.876Z,101246.00
2023-02-03T18:08:54.544Z,101253.00
2023-02-03T18:11:22.352Z,101254.00
2023-02-03T18:13:50.892Z,101263.00
2023-02-03T18:16:22.255Z,101251.00
2023-02-03T18:18:51.324Z,101263.00
2023-02-03T18:21:19.480Z,101262.00
2023-02-03T18:23:51.032Z,101265.00
2023-02-03T18:26:20.758Z,101272.00
2023-02-03T18:28:52.536Z,101311.00
2023-02-03T18:31:21.390Z,101293.00
2023-02-03T18:33:49.350Z,101299.00
2023-02-03T18:36:17.927Z,101309.00
2023-02-03T18:38:48.248Z,101308.00
2023-02-03T18:41:18.317Z,101314.00
2023-02-03T18:43:46.849Z,101329.00
2023-02-03T18:46:18.117Z,101338.00
2023-02-03T18:48:46.121Z,101330.00
2023-02-03T18:51:15.822Z,101332.00
2023-02-03T18:53:45.009Z,101346.00
2023-02-03T18:56:16.722Z,101355.00
2023-02-03T18:58:44.920Z,101364.00
2023-02-03T19:01:22.150Z,101369.00
2023-02-03T19:03:49.864Z,101382.00
2023-02-03T19:06:17.639Z,101381.00
2023-02-03T19:08:45.798Z,101392.00
2023-02-03T19:11:15.338Z,101392.00
2023-02-03T19:13:43.628Z,101372.00
2023-02-03T19:16:14.702Z,101395.00
2023-02-03T19:18:42.668Z,101379.00
2023-02-03T19:21:11.072Z,101390.00
2023-02-03T19:23:38.723Z,101402.00
2023-02-03T19:26:06.709Z,101397.00
2023-02-03T19:28:35.828Z,101398.00
2023-02-03T19:31:08.085Z,101387.00
2023-02-03T19:33:36.296Z,101389.00
2023-02-03T19:36:04.006Z,101406.00
2023-02-03T19:38:31.690Z,101409.00
2023-02-03T19:41:01.628Z,101414.00
2023-02-03T19:43:29.700Z,101420.00
2023-02-03T19:45:58.828Z,101427.00
2023-02-03T19:48:26.780Z,101418.00
2023-02-03T19:50:54.518Z,101428.00
2023-02-03T19:53:24.119Z,101434.00
2023-02-03T19:55:52.059Z,101429.00
2023-02-03T19:58:19.751Z,101432.00
2023-02-03T20:00:47.547Z,101444.00
2023-02-03T20:03:17.603Z,101445.00
2023-02-03T20:05:45.308Z,101444.00
2023-02-03T20:08:14.799Z,101457.00
2023-02-03T20:10:44.579Z,101453.00
2023-02-03T20:13:13.084Z,101456.00
2023-02-03T20:15:40.744Z,101465.00
2023-02-03T20:18:08.782Z,101460.00
2023-02-03T20:20:37.826Z,101467.00
2023-02-03T20:23:05.484Z,101478.00
2023-02-03T20:25:33.222Z,101475.00
2023-02-03T20:28:02.471Z,101477.00
2023-02-03T20:30:30.820Z,101470.00
2023-02-03T20:32:58.680Z,101482.00
2023-02-03T20:35:27.271Z,101497.00
2023-02-03T20:37:56.266Z,101498.00
2023-02-03T20:40:26.579Z,101500.00
2023-02-03T20:42:54.612Z,101494.00
2023-02-03T20:45:24.449Z,101519.00
2023-02-03T20:47:52.771Z,101521.00
2023-02-03T20:50:25.244Z,101522.00
2023-02-03T20:52:58.075Z,101530.00
2023-02-03T20:55:25.889Z,101529.00
2023-02-03T20:57:55.812Z,101540.00
2023-02-03T21:00:25.140Z,101546.00
2023-02-03T21:03:11.402Z,101548.00
2023-02-03T21:05:40.734Z,101560.00
2023-02-03T21:08:14.354Z,101545.00
2023-02-03T21:10:42.411Z,101562.00
2023-02-03T21:13:20.621Z,101553.00
2023-02-03T21:15:49.223Z,101557.00
2023-02-03T21:18:29.437Z,101571.00
2023-02-03T21:20:57.484Z,101576.00
2023-02-03T21:23:31.919Z,101583.00
2023-02-03T21:25:59.581Z,101585.00
2023-02-03T21:28:28.930Z,101598.00
2023-02-03T21:30:57.162Z,101587.00
2023-02-03T21:33:40.550Z,101591.00
2023-02-03T21:36:16.520Z,101612.00
2023-02-03T21:38:47.263Z,101608.00
2023-02-03T21:41:17.716Z,101624.00
2023-02-03T21:43:46.990Z,101621.00
2023-02-03T21:46:19.143Z,101625.00
2023-02-03T21:48:50.614Z,101626.00
2023-02-03T21:51:20.513Z,101641.00
2023-02-03T21:53:53.753Z,101627.00
2023-02-03T21:56:23.710Z,101631.00
2023-02-03T21:58:53.347Z,101644.00
2023-02-03T22:01:26.031Z,101642.00
2023-02-03T22:03:54.517Z,101649.00
2023-02-03T22:06:29.497Z,101641.00
2023-02-03T22:08:59.546Z,101646.00
2023-02-03T22:11:28.932Z,101650.00
2023-02-03T22:13:57.498Z,101651.00
2023-02-03T22:16:25.197Z,101650.00
2023-02-03T22:18:53.310Z,101652.00
2023-02-03T22:21:20.999Z,101656.00
2023-02-03T22:23:49.175Z,101662.00
2023-02-03T22:26:18.809Z,101672.00
2023-02-03T22:28:47.158Z,101682.00
2023-02-03T22:31:16.099Z,101694.00
2023-02-03T22:33:44.200Z,101710.00
2023-02-03T22:36:11.923Z,101722.00
2023-02-03T22:38:41.055Z,101738.00
2023-02-03T22:41:11.685Z,101751.00
2023-02-03T22:43:41.415Z,101732.00
2023-02-03T22:46:09.273Z,101734.00
2023-02-03T22:48:36.994Z,101750.00
2023-02-03T22:51:04.989Z,101748.00
2023-02-03T22:53:34.707Z,101755.00
2023-02-03T22:56:02.594Z,101756.00
2023-02-03T22:58:30.381Z,101744.00
2023-02-03T23:00:59.441Z,101763.00
2023-02-03T23:03:27.168Z,101767.00
2023-02-03T23:05:56.374Z,101774.00
2023-02-03T23:08:24.035Z,101785.00
2023-02-03T23:10:51.845Z,101778.00
2023-02-03T23:13:19.866Z,101772.00
2023-02-03T23:15:47.608Z,101797.00
2023-02-03T23:18:16.645Z,101784.00
2023-02-03T23:20:44.293Z,101801.00
2023-02-03T23:23:11.946Z,101808.00
2023-02-03T23:25:39.617Z,101821.00
2023-02-03T23:28:07.384Z,101828.00
2023-02-03T23:30:35.078Z,101821.00
2023-02-03T23:33:02.901Z,101839.00
2023-02-03T23:35:45.928Z,101839.00
2023-02-03T23:38:14.288Z,101850.00
2023-02-03T23:40:42.067Z,101844.00
2023-02-03T23:43:09.769Z,101858.00
2023-02-03T23:45:37.458Z,101862.00
2023-02-03T23:48:05.896Z,101872.00
2023-02-03T23:50:34.878Z,101883.00
2023-02-03T23:53:02.542Z,101888.00
2023-02-03T23:55:31.303Z,101885.00
2023-02-03T23:57:59.031Z,101888.00
